createdAt,value
2023-01-20T00:01:43.618Z,-2.42
2023-01-20T00:04:11.706Z,-2.45
2023-01-20T00:06:39.479Z,-2.46
2023-01-20T00:09:07.558Z,-2.50
2023-01-20T00:11:36.636Z,-2.43
2023-01-20T00:14:04.441Z,-2.52
2023-01-20T00:16:33.476Z,-2.50
2023-01-20T00:19:01.221Z,-2.47
2023-01-20T00:21:31.352Z,-2.41
2023-01-20T00:23:59.040Z,-2.45
2023-01-20T00:26:26.921Z,-2.55
2023-01-20T00:28:57.658Z,-2.49
2023-01-20T00:31:27.507Z,-2.53
2023-01-20T00:33:57.011Z,-2.54
2023-01-20T00:36:25.894Z,-2.46
2023-01-20T00:38:53.944Z,-2.47
2023-01-20T00:41:21.902Z,-2.46
2023-01-20T00:43:49.664Z,-2.42
2023-01-20T00:46:19.023Z,-2.46
2023-01-20T00:48:46.772Z,-2.43
2023-01-20T00:51:14.593Z,-2.36
2023-01-20T00:53:42.326Z,-2.37
2023-01-20T00:56:10.019Z,-2.35
2023-01-20T00:58:37.705Z,-2.33
2023-01-20T01:01:05.639Z,-2.33
2023-01-20T01:03:35.865Z,-2.38
2023-01-20T01:06:09.078Z,-2.36
2023-01-20T01:08:37.053Z,-2.34
2023-01-20T01:11:05.484Z,-2.34
2023-01-20T01:13:33.795Z,-2.40
2023-01-20T01:16:01.731Z,-2.35
2023-01-20T01:18:29.593Z,-2.38
2023-01-20T01:20:58.690Z,-2.40
2023-01-20T01:23:26.408Z,-2.39
2023-01-20T01:25:54.090Z,-2.43
2023-01-20T01:28:21.746Z,-2.42
2023-01-20T01:30:49.530Z,-2.47
2023-01-20T01:33:17.254Z,-2.50
2023-01-20T01:35:45.004Z,-2.46
2023-01-20T01:38:14.068Z,-2.51
2023-01-20T01:40:41.759Z,-2.55
2023-01-20T01:43:21.619Z,-2.57
2023-01-20T01:45:49.415Z,-2.60
2023-01-20T01:48:19.592Z,-2.64
2023-01-20T01:50:54.133Z,-2.66
2023-01-20T01:53:23.840Z,-2.66
2023-01-20T01:55:55.203Z,-2.67
2023-01-20T01:58:28.795Z,-2.65
2023-01-20T02:00:56.704Z,-2.67
2023-01-20T02:03:24.928Z,-2.71
2023-01-20T02:05:53.951Z,-2.70
2023-01-20T02:08:23.654Z,-2.77
2023-01-20T02:10:51.352Z,-2.84
2023-01-20T02:13:19.357Z,-2.86
2023-01-20T02:15:56.821Z,-2.95
2023-01-20T02:18:37.814Z,-2.96
2023-01-20T02:21:40.900Z,-3.06
2023-01-20T02:24:53.307Z,-3.05
2023-01-20T02:27:43.119Z,-2.99
2023-01-20T02:30:35.723Z,-3.03
2023-01-20T02:33:10.936Z,-3.04
2023-01-20T02:35:44.615Z,-2.98
2023-01-20T02:38:19.239Z,-2.99
2023-01-20T02:40:55.352Z,-3.01
2023-01-20T02:43:31.294Z,-2.99
2023-01-20T02:46:06.717Z,-2.97
2023-01-20T02:48:44.227Z,-2.99
2023-01-20T02:51:21.152Z,-3.00
2023-01-20T02:53:52.955Z,-2.96
2023-01-20T02:56:28.099Z,-2.93
2023-01-20T02:58:59.172Z,-2.95
2023-01-20T03:01:32.961Z,-2.89
2023-01-20T03:04:04.554Z,-2.84
2023-01-20T03:06:37.619Z,-2.79
2023-01-20T03:09:10.010Z,-2.80
2023-01-20T03:11:42.082Z,-2.72
2023-01-20T03:14:12.097Z,-2.69
2023-01-20T03:16:41.738Z,-2.66
2023-01-20T03:19:11.284Z,-2.63
2023-01-20T03:21:39.025Z,-2.57
2023-01-20T03:24:07.997Z,-2.56
2023-01-20T03:26:38.820Z,-2.50
2023-01-20T03:29:08.032Z,-2.51
2023-01-20T03:31:40.499Z,-2.52
2023-01-20T03:34:12.696Z,-2.50
2023-01-20T03:36:41.471Z,-2.50
2023-01-20T03:39:11.943Z,-2.47
2023-01-20T03:41:52.117Z,-2.50
2023-01-20T03:44:25.576Z,-2.50
2023-01-20T03:46:58.046Z,-2.46
2023-01-20T03:49:32.057Z,-2.48
2023-01-20T03:52:06.012Z,-2.44
2023-01-20T03:54:43.781Z,-2.49
2023-01-20T03:57:16.154Z,-2.47
2023-01-20T03:59:49.384Z,-2.41
2023-01-20T04:02:17.159Z,-2.42
2023-01-20T04:04:50.386Z,-2.37
2023-01-20T04:07:22.318Z,-2.30
2023-01-20T04:09:54.289Z,-2.31
2023-01-20T04:12:22.064Z,-2.31
2023-01-20T04:14:49.763Z,-2.28
2023-01-20T04:17:17.700Z,-2.26
2023-01-20T04:19:46.809Z,-2.29
2023-01-20T04:22:24.183Z,-2.20
2023-01-20T04:24:58.242Z,-2.26
2023-01-20T04:27:25.975Z,-2.24
2023-01-20T04:29:53.736Z,-2.29
2023-01-20T04:32:21.439Z,-2.26
2023-01-20T04:34:53.440Z,-2.24
2023-01-20T04:37:26.128Z,-2.26
2023-01-20T04:39:53.812Z,-2.24
2023-01-20T04:42:21.497Z,-2.22
2023-01-20T04:44:49.237Z,-2.13
2023-01-20T04:47:16.931Z,-2.16
2023-01-20T04:49:44.652Z,-2.14
2023-01-20T04:52:13.762Z,-2.16
2023-01-20T04:54:41.463Z,-2.17
2023-01-20T04:57:09.201Z,-2.17
2023-01-20T04:59:36.907Z,-2.22
2023-01-20T05:02:04.630Z,-2.18
2023-01-20T05:04:32.299Z,-2.22
2023-01-20T05:07:00.019Z,-2.26
2023-01-20T05:09:30.434Z,-2.28
2023-01-20T05:11:59.418Z,-2.28
2023-01-20T05:14:27.108Z,-2.26
2023-01-20T05:16:55.288Z,-2.20
2023-01-20T05:19:22.968Z,-2.20
2023-01-20T05:21:53.661Z,-2.25
2023-01-20T05:24:21.472Z,-2.25
2023-01-20T05:26:49.120Z,-2.18
2023-01-20T05:29:18.321Z,-2.17
2023-01-20T05:31:46.081Z,-2.21
2023-01-20T05:34:13.814Z,-2.22
2023-01-20T05:36:41.538Z,-2.24
2023-01-20T05:39:09.197Z,-2.27
2023-01-20T05:41:36.943Z,-2.31
2023-01-20T05:44:04.611Z,-2.29
2023-01-20T05:46:33.708Z,-2.31
2023-01-20T05:49:02.978Z,-2.32
2023-01-20T05:51:32.068Z,-2.34
2023-01-20T05:53:59.867Z,-2.36
2023-01-20T05:56:27.553Z,-2.31
2023-01-20T05:58:55.934Z,-2.29
2023-01-20T06:01:24.151Z,-2.30
2023-01-20T06:03:53.232Z,-2.21
2023-01-20T06:06:20.930Z,-2.27
2023-01-20T06:08:49.554Z,-2.28
2023-01-20T06:11:18.002Z,-2.24
2023-01-20T06:13:47.926Z,-2.24
2023-01-20T06:16:17.151Z,-2.21
2023-01-20T06:18:44.978Z,-2.24
2023-01-20T06:21:14.045Z,-2.22
2023-01-20T06:23:42.246Z,-2.25
2023-01-20T06:26:13.567Z,-2.27
2023-01-20T06:28:41.248Z,-2.21
2023-01-20T06:31:10.956Z,-2.27
2023-01-20T06:33:38.870Z,-2.32
2023-01-20T06:36:07.004Z,-2.34
2023-01-20T06:38:36.697Z,-2.34
2023-01-20T06:41:06.517Z,-2.34
2023-01-20T06:43:35.847Z,-2.30
2023-01-20T06:46:05.123Z,-2.30
2023-01-20T06:48:33.321Z,-2.26
2023-01-20T06:51:04.567Z,-2.29
2023-01-20T06:53:32.445Z,-2.32
2023-01-20T06:56:02.460Z,-2.28
2023-01-20T06:58:32.735Z,-2.29
2023-01-20T07:01:08.657Z,-2.33
2023-01-20T07:03:36.658Z,-2.37
2023-01-20T07:06:06.405Z,-2.36
2023-01-20T07:08:34.144Z,-2.29
2023-01-20T07:11:05.501Z,-2.33
2023-01-20T07:13:33.255Z,-2.31
2023-01-20T07:16:01.000Z,-2.30
2023-01-20T07:18:28.690Z,-2.28
2023-01-20T07:20:57.035Z,-2.26
2023-01-20T07:23:25.220Z,-2.19
2023-01-20T07:25:58.724Z,-2.19
2023-01-20T07:28:28.095Z,-2.17
2023-01-20T07:30:55.946Z,-2.15
2023-01-20T07:33:23.821Z,-2.18
2023-01-20T07:35:55.136Z,-2.14
2023-01-20T07:38:22.835Z,-2.06
2023-01-20T07:40:50.482Z,-2.09
2023-01-20T07:43:18.179Z,-2.04
2023-01-20T07:45:47.297Z,-1.98
2023-01-20T07:48:15.571Z,-1.88
2023-01-20T07:50:43.267Z,-1.87
2023-01-20T07:53:10.946Z,-1.84
2023-01-20T07:55:38.645Z,-1.88
2023-01-20T07:58:06.422Z,-1.80
2023-01-20T08:00:34.168Z,-1.84
2023-01-20T08:03:03.282Z,-1.83
2023-01-20T08:05:33.532Z,-1.92
2023-01-20T08:08:01.242Z,-1.93
2023-01-20T08:10:29.226Z,-1.80
2023-01-20T08:12:57.043Z,-1.76
2023-01-20T08:15:24.780Z,-1.71
2023-01-20T08:17:54.753Z,-1.72
2023-01-20T08:20:24.015Z,-1.56
2023-01-20T08:22:51.798Z,-1.53
2023-01-20T08:25:19.712Z,-1.50
2023-01-20T08:27:49.143Z,-1.47
2023-01-20T08:30:17.093Z,-1.35
2023-01-20T08:32:44.834Z,-1.52
2023-01-20T08:35:12.996Z,-1.43
2023-01-20T08:37:42.154Z,-1.34
2023-01-20T08:40:11.943Z,-1.38
2023-01-20T08:42:40.232Z,-1.50
2023-01-20T08:45:09.835Z,-1.47
2023-01-20T08:47:38.924Z,-1.19
2023-01-20T08:50:08.622Z,-1.06
2023-01-20T08:52:36.358Z,-1.06
2023-01-20T08:55:06.038Z,-0.94
2023-01-20T08:57:33.863Z,-0.94
2023-01-20T09:00:01.812Z,-1.01
2023-01-20T09:02:29.572Z,-1.03
2023-01-20T09:04:57.288Z,-0.84
2023-01-20T09:07:25.031Z,-0.85
2023-01-20T09:09:52.892Z,-0.89
2023-01-20T09:12:21.962Z,-0.87
2023-01-20T09:14:49.745Z,-0.77
2023-01-20T09:17:17.575Z,-0.64
2023-01-20T09:19:45.286Z,-0.59
2023-01-20T09:22:12.954Z,-0.92
2023-01-20T09:24:41.355Z,-0.83
2023-01-20T09:27:09.094Z,-0.77
2023-01-20T09:29:38.144Z,-0.68
2023-01-20T09:32:05.959Z,-0.90
2023-01-20T09:34:34.809Z,-0.80
2023-01-20T09:37:17.510Z,-0.67
2023-01-20T09:40:02.482Z,-0.64
2023-01-20T09:42:54.755Z,-0.72
2023-01-20T09:45:29.071Z,-0.61
2023-01-20T09:48:14.170Z,-0.33
2023-01-20T09:51:07.362Z,-0.04
2023-01-20T09:53:47.189Z,-0.12
2023-01-20T09:56:17.931Z,-0.03
2023-01-20T09:58:53.943Z,-0.06
2023-01-20T10:01:33.716Z,-0.12
2023-01-20T10:04:09.527Z,-0.08
2023-01-20T10:06:41.954Z,-0.01
2023-01-20T10:09:21.315Z,-0.24
2023-01-20T10:11:50.506Z,-0.50
2023-01-20T10:14:25.001Z,-0.35
2023-01-20T10:16:59.399Z,-0.22
2023-01-20T10:19:42.371Z,0.12
2023-01-20T10:22:14.301Z,0.14
2023-01-20T10:24:52.952Z,0.05
2023-01-20T10:27:20.703Z,0.02
2023-01-20T10:29:54.167Z,0.23
2023-01-20T10:32:33.352Z,0.35
2023-01-20T10:35:09.067Z,0.40
2023-01-20T10:37:37.340Z,0.10
2023-01-20T10:40:16.725Z,0.21
2023-01-20T10:42:48.454Z,0.32
2023-01-20T10:45:27.927Z,0.35
2023-01-20T10:48:06.891Z,0.43
2023-01-20T10:50:44.653Z,0.11
2023-01-20T10:53:35.714Z,0.33
2023-01-20T10:56:24.819Z,0.38
2023-01-20T10:58:52.851Z,0.50
2023-01-20T11:01:21.550Z,0.79
2023-01-20T11:03:51.001Z,0.82
2023-01-20T11:06:21.683Z,0.73
2023-01-20T11:08:49.952Z,0.65
2023-01-20T11:11:21.466Z,0.42
2023-01-20T11:13:53.906Z,0.25
2023-01-20T11:16:24.608Z,0.58
2023-01-20T11:19:01.748Z,0.65
2023-01-20T11:21:33.599Z,0.61
2023-01-20T11:24:01.730Z,0.83
2023-01-20T11:26:33.368Z,0.94
2023-01-20T11:29:03.027Z,0.48
2023-01-20T11:31:40.577Z,0.40
2023-01-20T11:34:24.262Z,0.60
2023-01-20T11:37:12.901Z,0.50
2023-01-20T11:40:00.186Z,0.60
2023-01-20T11:42:30.035Z,0.84
2023-01-20T11:45:19.754Z,0.62
2023-01-20T11:48:00.873Z,0.36
2023-01-20T11:50:35.368Z,0.14
2023-01-20T11:53:19.390Z,0.10
2023-01-20T11:55:51.162Z,0.33
2023-01-20T11:58:21.348Z,0.25
2023-01-20T12:00:51.306Z,0.49
2023-01-20T12:03:46.374Z,0.49
2023-01-20T12:06:19.978Z,0.46
2023-01-20T12:08:54.677Z,0.57
2023-01-20T12:11:28.459Z,0.57
2023-01-20T12:14:22.838Z,0.36
2023-01-20T12:16:58.225Z,0.58
2023-01-20T12:19:28.344Z,0.58
2023-01-20T12:22:04.310Z,0.38
2023-01-20T12:24:53.365Z,0.50
2023-01-20T12:27:26.798Z,0.35
2023-01-20T12:29:59.736Z,0.41
2023-01-20T12:32:29.220Z,0.38
2023-01-20T12:34:57.016Z,0.24
2023-01-20T12:37:32.894Z,0.27
2023-01-20T12:40:20.074Z,0.15
2023-01-20T12:43:08.212Z,0.07
2023-01-20T12:45:46.945Z,0.12
2023-01-20T12:48:36.848Z,0.25
2023-01-20T12:51:20.654Z,0.23
2023-01-20T12:54:17.549Z,0.13
2023-01-20T12:56:53.639Z,0.15
2023-01-20T12:59:36.913Z,0.37
2023-01-20T13:02:30.296Z,0.58
2023-01-20T13:05:19.859Z,0.34
2023-01-20T13:08:01.952Z,0.48
2023-01-20T13:10:56.020Z,0.24
2023-01-20T13:13:55.785Z,0.11
2023-01-20T13:16:33.374Z,-0.01
2023-01-20T13:19:11.437Z,-0.05
2023-01-20T13:21:41.114Z,0.02
2023-01-20T13:24:18.930Z,-0.07
2023-01-20T13:26:49.667Z,0.09
2023-01-20T13:29:24.695Z,0.08
2023-01-20T13:31:53.865Z,0.06
2023-01-20T13:34:35.978Z,0.05
2023-01-20T13:37:23.818Z,-0.04
2023-01-20T13:39:53.201Z,-0.27
2023-01-20T13:42:51.397Z,-0.33
2023-01-20T13:45:25.753Z,-0.31
2023-01-20T13:47:59.455Z,-0.48
2023-01-20T13:50:31.059Z,-0.62
2023-01-20T13:53:31.529Z,-0.67
2023-01-20T13:56:00.779Z,-0.71
2023-01-20T13:58:32.481Z,-0.59
2023-01-20T14:01:04.580Z,-0.69
2023-01-20T14:03:35.030Z,-0.63
2023-01-20T14:06:06.016Z,-0.62
2023-01-20T14:08:40.912Z,-0.65
2023-01-20T14:11:12.545Z,-0.72
2023-01-20T14:13:42.537Z,-0.67
2023-01-20T14:16:20.609Z,-0.70
2023-01-20T14:18:49.163Z,-0.69
2023-01-20T14:21:23.536Z,-0.57
2023-01-20T14:23:52.377Z,-0.56
2023-01-20T14:26:24.825Z,-0.52
2023-01-20T14:28:56.344Z,-0.45
2023-01-20T14:31:33.984Z,-0.38
2023-01-20T14:34:04.474Z,-0.37
2023-01-20T14:36:34.136Z,-0.44
2023-01-20T14:39:04.366Z,-0.45
2023-01-20T14:41:35.041Z,-0.45
2023-01-20T14:44:04.694Z,-0.51
2023-01-20T14:46:34.102Z,-0.68
2023-01-20T14:49:04.809Z,-0.65
2023-01-20T14:51:34.230Z,-0.72
2023-01-20T14:54:37.194Z,-0.77
2023-01-20T14:57:21.825Z,-0.92
2023-01-20T15:00:03.298Z,-0.94
2023-01-20T15:02:33.332Z,-0.90
2023-01-20T15:05:01.213Z,-0.87
2023-01-20T15:07:29.225Z,-0.91
2023-01-20T15:10:03.035Z,-0.88
2023-01-20T15:12:55.809Z,-0.90
2023-01-20T15:15:29.874Z,-0.96
2023-01-20T15:18:15.960Z,-1.01
2023-01-20T15:20:45.659Z,-1.00
2023-01-20T15:23:32.697Z,-1.05
2023-01-20T15:26:09.496Z,-0.97
2023-01-20T15:28:42.444Z,-1.01
2023-01-20T15:31:15.115Z,-1.08
2023-01-20T15:33:43.173Z,-1.15
2023-01-20T15:36:23.514Z,-1.04
2023-01-20T15:38:51.712Z,-1.07
2023-01-20T15:41:19.739Z,-1.07
2023-01-20T15:43:49.107Z,-1.07
2023-01-20T15:46:18.774Z,-1.03
2023-01-20T15:48:47.270Z,-1.01
2023-01-20T15:51:16.669Z,-1.01
2023-01-20T15:53:45.524Z,-1.07
2023-01-20T15:56:20.121Z,-1.10
2023-01-20T15:58:48.382Z,-1.07
2023-01-20T16:01:19.665Z,-1.07
2023-01-20T16:03:47.593Z,-1.06
2023-01-20T16:06:17.046Z,-0.99
2023-01-20T16:08:47.705Z,-0.97
2023-01-20T16:11:15.957Z,-1.01
2023-01-20T16:13:44.448Z,-0.96
2023-01-20T16:16:14.626Z,-0.96
2023-01-20T16:18:44.004Z,-1.00
2023-01-20T16:21:12.547Z,-0.93
2023-01-20T16:23:40.484Z,-0.93
2023-01-20T16:26:20.443Z,-0.90
2023-01-20T16:28:48.134Z,-0.93
2023-01-20T16:31:16.094Z,-0.97
2023-01-20T16:33:46.531Z,-0.92
2023-01-20T16:36:15.789Z,-0.93
2023-01-20T16:38:44.738Z,-0.94
2023-01-20T16:41:16.218Z,-0.95
2023-01-20T16:43:44.823Z,-0.99
2023-01-20T16:46:15.311Z,-0.92
2023-01-20T16:48:50.085Z,-0.94
2023-01-20T16:51:19.858Z,-1.01
2023-01-20T16:53:47.623Z,-1.02
2023-01-20T16:56:16.198Z,-1.07
2023-01-20T16:58:44.027Z,-1.07
2023-01-20T17:01:13.266Z,-1.11
2023-01-20T17:03:41.381Z,-1.09
2023-01-20T17:06:17.482Z,-1.10
2023-01-20T17:08:45.750Z,-1.09
2023-01-20T17:11:17.849Z,-1.11
2023-01-20T17:13:45.667Z,-1.08
2023-01-20T17:16:13.736Z,-1.10
2023-01-20T17:18:44.688Z,-1.02
2023-01-20T17:21:14.826Z,-1.07
2023-01-20T17:23:44.134Z,-1.07
2023-01-20T17:26:11.787Z,-1.07
2023-01-20T17:28:41.810Z,-1.06
2023-01-20T17:31:09.509Z,-1.06
2023-01-20T17:33:37.265Z,-1.03
2023-01-20T17:36:06.852Z,-1.00
2023-01-20T17:38:36.253Z,-1.04
2023-01-20T17:41:05.370Z,-0.96
2023-01-20T17:43:33.736Z,-0.98
2023-01-20T17:46:01.962Z,-0.97
2023-01-20T17:48:30.181Z,-1.02
2023-01-20T17:50:59.286Z,-1.02
2023-01-20T17:53:27.451Z,-1.03
2023-01-20T17:56:10.977Z,-1.01
2023-01-20T17:58:40.475Z,-1.03
2023-01-20T18:01:13.295Z,-0.99
2023-01-20T18:03:43.053Z,-0.96
2023-01-20T18:06:12.931Z,-0.92
2023-01-20T18:08:40.792Z,-0.94
2023-01-20T18:11:11.381Z,-0.94
2023-01-20T18:13:39.744Z,-0.93
2023-01-20T18:16:08.907Z,-0.89
2023-01-20T18:18:36.598Z,-0.91
2023-01-20T18:21:11.105Z,-0.95
2023-01-20T18:23:39.524Z,-0.92
2023-01-20T18:26:09.823Z,-0.94
2023-01-20T18:28:38.475Z,-0.98
2023-01-20T18:31:08.943Z,-1.00
2023-01-20T18:33:39.711Z,-0.99
2023-01-20T18:36:08.833Z,-1.03
2023-01-20T18:38:36.536Z,-1.01
2023-01-20T18:41:04.399Z,-1.06
2023-01-20T18:43:33.441Z,-1.00
2023-01-20T18:46:01.127Z,-0.97
2023-01-20T18:48:28.783Z,-1.00
2023-01-20T18:50:59.992Z,-1.02
2023-01-20T18:53:38.795Z,-1.04
2023-01-20T18:56:09.584Z,-1.00
2023-01-20T18:58:41.277Z,-1.00
2023-01-20T19:01:10.545Z,-1.01
2023-01-20T19:03:39.465Z,-1.03
2023-01-20T19:06:10.867Z,-1.09
2023-01-20T19:08:39.128Z,-1.11
2023-01-20T19:11:09.205Z,-1.11
2023-01-20T19:13:38.258Z,-1.10
2023-01-20T19:16:10.113Z,-1.11
2023-01-20T19:18:38.045Z,-1.14
2023-01-20T19:21:06.454Z,-1.11
2023-01-20T19:23:34.171Z,-1.11
2023-01-20T19:26:18.446Z,-1.16
2023-01-20T19:28:48.658Z,-1.13
2023-01-20T19:31:18.425Z,-1.11
2023-01-20T19:33:48.885Z,-1.16
2023-01-20T19:36:18.251Z,-1.19
2023-01-20T19:38:46.559Z,-1.19
2023-01-20T19:41:16.665Z,-1.21
2023-01-20T19:43:45.445Z,-1.21
2023-01-20T19:46:16.262Z,-1.23
2023-01-20T19:48:44.322Z,-1.21
2023-01-20T19:51:13.726Z,-1.25
2023-01-20T19:53:41.729Z,-1.20
2023-01-20T19:56:11.644Z,-1.28
2023-01-20T19:58:40.111Z,-1.23
2023-01-20T20:01:08.671Z,-1.18
2023-01-20T20:03:38.083Z,-1.25
2023-01-20T20:06:08.238Z,-1.28
2023-01-20T20:08:36.737Z,-1.26
2023-01-20T20:11:04.526Z,-1.20
2023-01-20T20:13:32.201Z,-1.27
2023-01-20T20:16:03.523Z,-1.25
2023-01-20T20:18:31.455Z,-1.29
2023-01-20T20:21:00.601Z,-1.28
2023-01-20T20:23:29.797Z,-1.26
2023-01-20T20:25:57.558Z,-1.28
2023-01-20T20:28:25.639Z,-1.35
2023-01-20T20:30:55.386Z,-1.36
2023-01-20T20:33:24.082Z,-1.33
2023-01-20T20:35:51.794Z,-1.31
2023-01-20T20:38:20.830Z,-1.33
2023-01-20T20:40:48.476Z,-1.33
2023-01-20T20:43:16.163Z,-1.33
2023-01-20T20:45:43.825Z,-1.37
2023-01-20T20:48:11.531Z,-1.40
2023-01-20T20:50:39.174Z,-1.36
2023-01-20T20:53:06.905Z,-1.40
2023-01-20T20:55:40.248Z,-1.42
2023-01-20T20:58:08.473Z,-1.39
2023-01-20T21:00:36.627Z,-1.36
2023-01-20T21:03:06.835Z,-1.40
2023-01-20T21:05:34.808Z,-1.41
2023-01-20T21:08:04.683Z,-1.43
2023-01-20T21:10:32.461Z,-1.42
2023-01-20T21:13:01.487Z,-1.45
2023-01-20T21:15:30.441Z,-1.45
2023-01-20T21:17:58.303Z,-1.40
2023-01-20T21:20:25.978Z,-1.41
2023-01-20T21:22:53.667Z,-1.38
2023-01-20T21:25:24.029Z,-1.45
2023-01-20T21:27:51.760Z,-1.38
2023-01-20T21:30:21.134Z,-1.37
2023-01-20T21:32:48.823Z,-1.39
2023-01-20T21:35:16.621Z,-1.48
2023-01-20T21:37:44.476Z,-1.40
2023-01-20T21:40:13.480Z,-1.42
2023-01-20T21:42:41.208Z,-1.39
2023-01-20T21:45:09.281Z,-1.42
2023-01-20T21:47:38.381Z,-1.42
2023-01-20T21:50:24.261Z,-1.42
2023-01-20T21:52:52.099Z,-1.47
2023-01-20T21:55:21.472Z,-1.46
2023-01-20T21:57:51.512Z,-1.41
2023-01-20T22:00:19.823Z,-1.43
2023-01-20T22:02:48.985Z,-1.36
2023-01-20T22:05:17.776Z,-1.44
2023-01-20T22:07:47.810Z,-1.49
2023-01-20T22:10:15.808Z,-1.50
2023-01-20T22:12:43.584Z,-1.53
2023-01-20T22:15:12.090Z,-1.57
2023-01-20T22:17:41.363Z,-1.56
2023-01-20T22:20:12.367Z,-1.63
2023-01-20T22:22:40.011Z,-1.65
2023-01-20T22:25:08.181Z,-1.59
2023-01-20T22:27:35.811Z,-1.61
2023-01-20T22:30:03.540Z,-1.67
2023-01-20T22:32:31.234Z,-1.68
2023-01-20T22:34:58.956Z,-1.66
2023-01-20T22:37:27.991Z,-1.63
2023-01-20T22:39:55.698Z,-1.66
2023-01-20T22:42:23.344Z,-1.60
2023-01-20T22:44:50.965Z,-1.61
2023-01-20T22:47:18.617Z,-1.59
2023-01-20T22:49:46.259Z,-1.57
2023-01-20T22:52:14.102Z,-1.64
2023-01-20T22:54:43.112Z,-1.59
2023-01-20T23:01:55.115Z,-1.71
2023-01-20T23:04:22.820Z,-1.69
2023-01-20T23:06:50.464Z,-1.73
2023-01-20T23:09:18.213Z,-1.78
2023-01-20T23:11:46.776Z,-1.78
2023-01-20T23:17:11.468Z,-1.77
2023-01-20T23:19:39.134Z,-1.72
2023-01-20T23:22:06.774Z,-1.69
2023-01-20T23:24:34.564Z,-1.68
2023-01-20T23:27:02.205Z,-1.65
2023-01-20T23:29:30.051Z,-1.69
2023-01-20T23:31:57.743Z,-1.73
2023-01-20T23:34:27.268Z,-1.73
2023-01-20T23:36:54.955Z,-1.70
2023-01-20T23:39:22.790Z,-1.70
2023-01-20T23:41:50.574Z,-1.69
2023-01-20T23:44:18.207Z,-1.74
2023-01-20T23:46:45.893Z,-1.76
2023-01-20T23:49:13.581Z,-1.79
2023-01-20T23:51:42.590Z,-1.78
2023-01-20T23:54:13.271Z,-1.80
2023-01-20T23:56:41.011Z,-1.80
2023-01-20T23:59:08.685Z,-1.82
